createdAt,value
2023-03-27T00:01:17.785Z,2.10
2023-03-27T00:03:44.840Z,1.95
2023-03-27T00:06:16.537Z,2.03
2023-03-27T00:08:44.573Z,1.95
2023-03-27T00:11:11.756Z,2.10
2023-03-27T00:13:49.285Z,1.70
2023-03-27T00:16:19.923Z,2.03
2023-03-27T00:18:46.705Z,1.70
2023-03-27T00:21:13.419Z,1.98
2023-03-27T00:23:40.549Z,1.73
2023-03-27T00:26:07.584Z,1.77
2023-03-27T00:28:35.429Z,1.67
2023-03-27T00:31:02.637Z,1.80
2023-03-27T00:33:29.780Z,1.90
2023-03-27T00:35:56.650Z,1.70
2023-03-27T00:38:24.283Z,1.70
2023-03-27T00:40:53.530Z,1.83
2023-03-27T00:43:28.488Z,1.60
2023-03-27T00:46:03.351Z,1.73
2023-03-27T00:48:34.672Z,1.80
2023-03-27T00:51:01.672Z,1.98
2023-03-27T00:53:29.869Z,1.80
2023-03-27T00:56:01.170Z,1.55
2023-03-27T00:58:42.389Z,1.73
2023-03-27T01:01:12.949Z,1.70
2023-03-27T01:03:41.651Z,1.90
2023-03-27T01:06:10.993Z,1.55
2023-03-27T01:08:37.951Z,1.67
2023-03-27T01:11:32.570Z,1.80
2023-03-27T01:17:08.391Z,2.15
2023-03-27T01:20:10.008Z,1.98
2023-03-27T01:23:04.483Z,1.90
2023-03-27T01:25:40.928Z,1.50
2023-03-27T01:28:23.407Z,1.60
2023-03-27T01:31:07.248Z,2.10
2023-03-27T01:33:52.747Z,1.48
2023-03-27T01:36:37.341Z,1.65
2023-03-27T01:39:30.503Z,1.60
2023-03-27T01:42:18.364Z,1.70
2023-03-27T01:44:51.753Z,1.63
2023-03-27T01:47:26.207Z,1.63
2023-03-27T01:50:08.088Z,1.80
2023-03-27T01:52:39.526Z,1.90
2023-03-27T01:55:11.468Z,1.70
2023-03-27T01:57:50.173Z,1.77
2023-03-27T02:00:22.421Z,1.67
2023-03-27T02:02:57.156Z,1.90
2023-03-27T02:05:44.888Z,2.10
2023-03-27T02:08:18.376Z,1.98
2023-03-27T02:10:50.736Z,1.90
2023-03-27T02:13:22.500Z,1.83
2023-03-27T02:15:50.844Z,1.70
2023-03-27T02:18:29.504Z,1.90
2023-03-27T02:20:56.263Z,1.55
2023-03-27T02:23:23.329Z,1.55
2023-03-27T02:25:51.566Z,1.55
2023-03-27T02:28:42.180Z,1.70
2023-03-27T02:31:33.141Z,1.63
2023-03-27T02:34:31.566Z,1.95
2023-03-27T02:37:32.364Z,1.42
2023-03-27T02:40:55.977Z,1.90
2023-03-27T02:44:01.760Z,1.67
2023-03-27T02:47:01.927Z,2.03
2023-03-27T02:49:34.853Z,1.60
2023-03-27T02:52:07.658Z,1.55
2023-03-27T02:54:47.352Z,1.60
2023-03-27T02:57:18.688Z,1.60
2023-03-27T03:00:20.284Z,1.60
2023-03-27T03:03:13.902Z,1.60
2023-03-27T03:05:41.230Z,2.00
2023-03-27T03:08:10.230Z,2.00
2023-03-27T03:10:44.501Z,1.90
2023-03-27T03:13:12.698Z,1.65
2023-03-27T03:15:42.497Z,1.70
2023-03-27T03:18:09.136Z,1.90
2023-03-27T03:20:35.756Z,1.80
2023-03-27T03:23:06.815Z,1.58
2023-03-27T03:25:34.349Z,1.88
2023-03-27T03:28:00.998Z,2.28
2023-03-27T03:30:30.111Z,1.65
2023-03-27T03:33:02.803Z,1.85
2023-03-27T03:35:29.731Z,1.40
2023-03-27T03:37:58.829Z,2.03
2023-03-27T03:40:26.305Z,2.03
2023-03-27T03:42:56.589Z,1.55
2023-03-27T03:45:27.500Z,1.80
2023-03-27T03:47:53.963Z,1.55
2023-03-27T03:50:24.070Z,1.92
2023-03-27T03:52:50.877Z,1.65
2023-03-27T03:55:17.386Z,1.70
2023-03-27T03:57:47.065Z,2.30
2023-03-27T04:00:19.358Z,2.35
2023-03-27T04:02:53.263Z,1.70
2023-03-27T04:05:20.801Z,1.70
2023-03-27T04:07:51.138Z,1.90
2023-03-27T04:10:30.360Z,1.80
2023-03-27T04:12:59.456Z,1.88
2023-03-27T04:15:29.016Z,1.50
2023-03-27T04:17:58.792Z,2.20
2023-03-27T04:20:26.633Z,1.80
2023-03-27T04:22:55.374Z,1.85
2023-03-27T04:25:24.205Z,1.60
2023-03-27T04:27:51.944Z,1.88
2023-03-27T04:30:25.415Z,1.63
2023-03-27T04:33:23.024Z,2.00
2023-03-27T04:36:10.165Z,1.65
2023-03-27T04:38:50.429Z,1.92
2023-03-27T04:41:17.792Z,2.03
2023-03-27T04:43:45.981Z,1.95
2023-03-27T04:46:12.474Z,2.08
2023-03-27T04:48:40.405Z,2.25
2023-03-27T04:51:19.994Z,2.15
2023-03-27T04:53:47.866Z,2.63
2023-03-27T04:56:15.161Z,2.67
2023-03-27T04:58:46.594Z,2.33
2023-03-27T05:01:15.688Z,1.77
2023-03-27T05:04:17.341Z,1.98
2023-03-27T05:07:04.771Z,2.05
2023-03-27T05:09:31.249Z,2.60
2023-03-27T05:11:57.774Z,2.28
2023-03-27T05:14:24.598Z,2.13
2023-03-27T05:16:52.729Z,2.00
2023-03-27T05:19:20.755Z,2.10
2023-03-27T05:21:55.895Z,2.33
2023-03-27T05:24:23.136Z,2.15
2023-03-27T05:26:49.694Z,2.45
2023-03-27T05:29:16.747Z,2.22
2023-03-27T05:31:45.796Z,2.00
2023-03-27T05:34:38.676Z,2.10
2023-03-27T05:37:08.710Z,2.08
2023-03-27T05:39:53.367Z,2.30
2023-03-27T05:42:19.868Z,2.10
2023-03-27T05:44:46.297Z,2.72
2023-03-27T05:47:14.383Z,2.20
2023-03-27T05:49:41.255Z,2.10
2023-03-27T05:52:11.563Z,2.22
2023-03-27T05:54:38.258Z,2.42
2023-03-27T05:57:09.517Z,2.78
2023-03-27T05:59:38.034Z,2.30
2023-03-27T06:02:21.032Z,1.80
2023-03-27T06:04:54.409Z,2.35
2023-03-27T06:07:33.560Z,2.25
2023-03-27T06:10:13.334Z,2.08
2023-03-27T06:12:58.930Z,2.10
2023-03-27T06:15:33.549Z,2.30
2023-03-27T06:18:16.292Z,2.30
2023-03-27T06:20:43.458Z,2.38
2023-03-27T06:23:10.420Z,2.25
2023-03-27T06:25:39.142Z,2.45
2023-03-27T06:28:09.327Z,2.00
2023-03-27T06:30:42.185Z,2.10
2023-03-27T06:33:27.392Z,2.10
2023-03-27T06:36:00.584Z,2.35
2023-03-27T06:38:33.359Z,2.47
2023-03-27T06:41:01.428Z,2.00
2023-03-27T06:43:50.711Z,1.92
2023-03-27T06:46:45.263Z,2.00
2023-03-27T06:49:23.723Z,1.83
2023-03-27T06:51:50.943Z,1.90
2023-03-27T06:54:20.653Z,2.03
2023-03-27T06:56:51.090Z,2.08
2023-03-27T06:59:20.900Z,2.15
2023-03-27T07:01:52.401Z,1.92
2023-03-27T07:04:22.424Z,2.22
2023-03-27T07:07:07.416Z,2.70
2023-03-27T07:09:40.034Z,1.75
2023-03-27T07:12:09.092Z,2.10
2023-03-27T07:14:37.270Z,2.33
2023-03-27T07:17:03.741Z,2.03
2023-03-27T07:19:46.226Z,2.78
2023-03-27T07:22:14.374Z,2.40
2023-03-27T07:24:41.475Z,1.70
2023-03-27T07:27:09.894Z,2.00
2023-03-27T07:29:37.295Z,2.28
2023-03-27T07:32:08.634Z,1.90
2023-03-27T07:34:49.085Z,2.25
2023-03-27T07:37:53.036Z,1.77
2023-03-27T07:40:40.616Z,1.45
2023-03-27T07:43:36.797Z,1.50
2023-03-27T07:46:06.113Z,1.77
2023-03-27T07:48:32.956Z,1.70
2023-03-27T07:51:10.811Z,1.77
2023-03-27T07:53:41.363Z,2.03
2023-03-27T07:56:16.867Z,1.80
2023-03-27T07:58:47.114Z,2.10
2023-03-27T08:01:18.949Z,1.85
2023-03-27T08:03:48.494Z,1.83
2023-03-27T08:06:16.818Z,2.00
2023-03-27T08:08:43.438Z,2.05
2023-03-27T08:11:22.966Z,1.83
2023-03-27T08:16:21.573Z,1.83
2023-03-27T08:18:49.731Z,1.80
2023-03-27T08:21:16.645Z,2.20
2023-03-27T08:23:44.690Z,2.20
2023-03-27T08:26:34.035Z,1.65
2023-03-27T08:29:08.950Z,1.85
2023-03-27T08:31:36.629Z,1.85
2023-03-27T08:34:05.246Z,1.85
2023-03-27T08:36:43.424Z,2.35
2023-03-27T08:39:10.067Z,2.03
2023-03-27T08:41:55.204Z,2.22
2023-03-27T08:44:31.903Z,1.73
2023-03-27T08:47:06.705Z,1.80
2023-03-27T08:49:47.920Z,1.85
2023-03-27T08:52:25.898Z,1.70
2023-03-27T08:55:18.617Z,2.03
2023-03-27T09:00:35.932Z,1.77
2023-03-27T09:03:35.205Z,2.13
2023-03-27T09:06:10.285Z,2.05
2023-03-27T09:09:17.192Z,2.08
2023-03-27T09:11:55.387Z,2.33
2023-03-27T09:14:37.454Z,2.53
2023-03-27T09:17:16.164Z,2.08
2023-03-27T09:19:56.502Z,2.17
2023-03-27T09:22:34.220Z,1.85
2023-03-27T09:25:36.575Z,2.15
2023-03-27T09:28:35.643Z,1.98
2023-03-27T09:31:29.149Z,2.25
2023-03-27T09:34:01.890Z,2.10
2023-03-27T09:36:28.941Z,1.90
2023-03-27T09:39:05.676Z,2.22
2023-03-27T09:41:39.007Z,2.22
2023-03-27T09:44:15.575Z,2.17
2023-03-27T09:46:47.856Z,1.90
2023-03-27T09:49:19.138Z,1.77
2023-03-27T09:51:58.269Z,1.77
2023-03-27T09:54:54.234Z,1.65
2023-03-27T09:57:35.648Z,1.70
2023-03-27T10:00:24.979Z,1.75
2023-03-27T10:03:13.824Z,1.92
2023-03-27T10:05:46.951Z,2.08
2023-03-27T10:08:38.905Z,1.77
2023-03-27T10:11:16.785Z,1.95
2023-03-27T10:13:50.238Z,1.65
2023-03-27T10:16:22.368Z,1.58
2023-03-27T10:19:00.351Z,1.30
2023-03-27T10:21:42.584Z,1.40
2023-03-27T10:24:17.440Z,1.40
2023-03-27T10:27:07.009Z,1.30
2023-03-27T10:29:39.658Z,1.95
2023-03-27T10:32:12.121Z,1.52
2023-03-27T10:35:05.342Z,1.45
2023-03-27T10:38:12.352Z,1.42
2023-03-27T10:41:05.464Z,1.42
2023-03-27T10:43:43.621Z,1.92
2023-03-27T10:46:17.435Z,1.35
2023-03-27T10:49:18.531Z,1.67
2023-03-27T10:52:06.183Z,1.80
2023-03-27T10:55:41.504Z,1.83
2023-03-27T10:58:27.043Z,1.40
2023-03-27T11:01:01.634Z,1.30
2023-03-27T11:03:46.632Z,1.33
2023-03-27T11:06:17.295Z,1.23
2023-03-27T11:09:29.480Z,1.27
2023-03-27T11:12:07.215Z,1.60
2023-03-27T11:14:57.051Z,1.25
2023-03-27T11:17:33.200Z,1.35
2023-03-27T11:20:32.045Z,1.20
2023-03-27T11:23:32.810Z,1.25
2023-03-27T11:26:16.254Z,1.20
2023-03-27T11:29:02.026Z,1.30
2023-03-27T11:31:46.167Z,1.55
2023-03-27T11:34:36.313Z,1.45
2023-03-27T11:37:39.713Z,1.38
2023-03-27T11:40:23.827Z,1.35
2023-03-27T11:42:57.533Z,1.40
2023-03-27T11:45:27.218Z,1.38
2023-03-27T11:48:22.753Z,1.20
2023-03-27T11:51:24.991Z,1.42
2023-03-27T11:54:03.420Z,1.20
2023-03-27T11:56:52.538Z,1.10
2023-03-27T12:00:00.812Z,1.55
2023-03-27T12:02:56.834Z,1.63
2023-03-27T12:05:48.327Z,1.45
2023-03-27T12:08:17.969Z,1.30
2023-03-27T12:10:52.100Z,1.30
2023-03-27T12:14:02.098Z,1.30
2023-03-27T12:17:05.409Z,1.42
2023-03-27T12:20:09.280Z,1.17
2023-03-27T12:22:53.715Z,1.40
2023-03-27T12:26:09.810Z,1.27
2023-03-27T12:29:24.409Z,1.20
2023-03-27T12:32:29.669Z,1.10
2023-03-27T12:35:07.318Z,1.35
2023-03-27T12:38:03.065Z,1.15
2023-03-27T12:40:39.921Z,1.23
2023-03-27T12:43:26.529Z,1.30
2023-03-27T12:46:23.731Z,1.35
2023-03-27T12:48:54.281Z,1.43
2023-03-27T12:51:51.067Z,1.00
2023-03-27T12:54:36.205Z,1.27
2023-03-27T12:57:25.066Z,1.38
2023-03-27T13:00:08.814Z,1.10
2023-03-27T13:02:43.977Z,1.13
2023-03-27T13:05:27.368Z,1.10
2023-03-27T13:08:13.297Z,1.00
2023-03-27T13:11:35.687Z,1.25
2023-03-27T13:14:41.747Z,1.75
2023-03-27T13:17:45.486Z,1.38
2023-03-27T13:20:37.207Z,1.40
2023-03-27T13:23:24.015Z,1.50
2023-03-27T13:26:06.563Z,1.52
2023-03-27T13:28:48.614Z,1.20
2023-03-27T13:31:49.456Z,1.42
2023-03-27T13:34:40.205Z,1.75
2023-03-27T13:37:14.180Z,1.30
2023-03-27T13:40:01.521Z,1.55
2023-03-27T13:42:41.860Z,1.52
2023-03-27T13:45:20.193Z,1.70
2023-03-27T13:48:32.559Z,1.23
2023-03-27T13:51:21.813Z,1.35
2023-03-27T13:54:10.877Z,1.27
2023-03-27T13:57:03.942Z,1.20
2023-03-27T13:59:52.926Z,1.20
2023-03-27T14:02:46.188Z,1.70
2023-03-27T14:05:55.241Z,1.58
2023-03-27T14:08:35.702Z,1.13
2023-03-27T14:11:52.943Z,1.40
2023-03-27T14:15:12.553Z,1.80
2023-03-27T14:17:42.411Z,1.60
2023-03-27T14:20:23.968Z,2.10
2023-03-27T14:22:56.990Z,1.60
2023-03-27T14:25:34.813Z,2.22
2023-03-27T14:28:45.363Z,2.00
2023-03-27T14:31:19.238Z,1.40
2023-03-27T14:34:10.112Z,1.40
2023-03-27T14:36:42.464Z,1.35
2023-03-27T14:39:19.715Z,1.17
2023-03-27T14:41:59.330Z,1.60
2023-03-27T14:44:32.047Z,1.30
2023-03-27T14:47:09.902Z,1.20
2023-03-27T14:49:47.483Z,1.42
2023-03-27T14:52:25.608Z,1.60
2023-03-27T14:55:18.022Z,1.30
2023-03-27T14:57:51.163Z,1.40
2023-03-27T15:00:21.362Z,1.25
2023-03-27T15:02:52.190Z,1.65
2023-03-27T15:05:22.925Z,1.17
2023-03-27T15:07:55.976Z,1.58
2023-03-27T15:10:40.996Z,1.55
2023-03-27T15:13:35.535Z,1.40
2023-03-27T15:16:06.619Z,1.35
2023-03-27T15:18:52.977Z,1.67
2023-03-27T15:21:39.062Z,1.20
2023-03-27T15:24:10.541Z,1.65
2023-03-27T15:26:39.145Z,1.98
2023-03-27T15:29:17.909Z,1.55
2023-03-27T15:31:48.987Z,1.85
2023-03-27T15:34:24.104Z,2.17
2023-03-27T15:36:58.114Z,2.25
2023-03-27T15:41:55.909Z,1.55
2023-03-27T15:44:25.834Z,1.30
2023-03-27T15:46:55.722Z,1.80
2023-03-27T15:49:29.178Z,1.67
2023-03-27T15:51:57.802Z,1.52
2023-03-27T15:54:33.352Z,1.52
2023-03-27T15:57:10.462Z,1.80
2023-03-27T15:59:52.158Z,2.22
2023-03-27T16:02:21.102Z,1.48
2023-03-27T16:04:54.380Z,1.42
2023-03-27T16:07:26.773Z,1.27
2023-03-27T16:10:02.307Z,1.42
2023-03-27T16:12:41.408Z,1.67
2023-03-27T16:15:27.697Z,1.70
2023-03-27T16:17:56.675Z,1.45
2023-03-27T16:20:23.112Z,1.50
2023-03-27T16:22:50.988Z,1.73
2023-03-27T16:25:17.609Z,1.60
2023-03-27T16:27:51.152Z,1.35
2023-03-27T16:30:26.728Z,1.75
2023-03-27T16:32:53.387Z,1.40
2023-03-27T16:35:20.000Z,2.08
2023-03-27T16:37:46.522Z,1.80
2023-03-27T16:40:13.492Z,1.52
2023-03-27T16:42:40.517Z,1.90
2023-03-27T16:45:07.779Z,1.63
2023-03-27T16:47:34.834Z,1.73
2023-03-27T16:52:34.426Z,1.90
2023-03-27T16:55:01.974Z,2.33
2023-03-27T16:57:28.807Z,1.60
2023-03-27T16:59:55.383Z,1.63
2023-03-27T17:02:21.893Z,2.33
2023-03-27T17:04:48.586Z,1.50
2023-03-27T17:07:15.874Z,1.65
2023-03-27T17:09:42.320Z,1.83
2023-03-27T17:12:10.370Z,1.70
2023-03-27T17:14:37.260Z,1.55
2023-03-27T17:17:03.826Z,1.70
2023-03-27T17:19:30.373Z,1.95
2023-03-27T17:21:56.873Z,1.60
2023-03-27T17:24:23.281Z,1.90
2023-03-27T17:26:49.751Z,1.13
2023-03-27T17:29:16.759Z,1.60
2023-03-27T17:31:43.415Z,1.70
2023-03-27T17:34:09.941Z,1.50
2023-03-27T17:36:44.840Z,1.10
2023-03-27T17:39:16.204Z,1.75
2023-03-27T17:41:42.624Z,2.05
2023-03-27T17:44:11.635Z,1.80
2023-03-27T17:46:38.233Z,1.55
2023-03-27T17:49:05.022Z,2.08
2023-03-27T17:51:31.543Z,1.63
2023-03-27T17:53:58.397Z,1.70
2023-03-27T17:56:24.900Z,1.70
2023-03-27T17:58:51.530Z,2.13
2023-03-27T18:01:21.058Z,1.85
2023-03-27T18:03:48.549Z,1.73
2023-03-27T18:06:19.660Z,1.52
2023-03-27T18:08:46.752Z,2.03
2023-03-27T18:11:15.686Z,1.75
2023-03-27T18:13:42.810Z,2.30
2023-03-27T18:16:10.747Z,1.70
2023-03-27T18:18:39.111Z,2.13
2023-03-27T18:21:07.846Z,1.90
2023-03-27T18:23:35.158Z,2.05
2023-03-27T18:26:06.732Z,2.10
2023-03-27T18:28:34.135Z,1.75
2023-03-27T18:31:08.242Z,2.55
2023-03-27T18:33:35.360Z,2.00
2023-03-27T18:36:02.981Z,1.70
2023-03-27T18:38:29.874Z,1.80
2023-03-27T18:40:57.777Z,2.22
2023-03-27T18:43:24.542Z,1.92
2023-03-27T18:46:04.839Z,2.08
2023-03-27T18:48:31.532Z,2.40
2023-03-27T18:51:01.225Z,2.55
2023-03-27T18:53:29.212Z,2.05
2023-03-27T18:55:58.272Z,2.15
2023-03-27T18:58:27.399Z,2.10
2023-03-27T19:00:55.619Z,2.22
2023-03-27T19:03:24.398Z,2.55
2023-03-27T19:05:52.565Z,2.35
2023-03-27T19:08:21.347Z,2.50
2023-03-27T19:10:47.942Z,2.35
2023-03-27T19:13:22.899Z,2.38
2023-03-27T19:16:19.884Z,2.42
2023-03-27T19:19:15.272Z,2.22
2023-03-27T19:22:09.918Z,2.28
2023-03-27T19:24:41.666Z,1.97
2023-03-27T19:27:23.193Z,2.17
2023-03-27T19:29:51.885Z,2.30
2023-03-27T19:32:18.377Z,1.90
2023-03-27T19:34:44.894Z,2.05
2023-03-27T19:37:11.373Z,1.67
2023-03-27T19:39:38.034Z,2.00
2023-03-27T19:42:04.874Z,1.90
2023-03-27T19:44:34.390Z,1.70
2023-03-27T19:47:03.512Z,2.15
2023-03-27T19:49:33.248Z,2.28
2023-03-27T19:52:19.807Z,2.30
2023-03-27T19:54:47.019Z,2.20
2023-03-27T19:57:13.564Z,1.80
2023-03-27T19:59:40.165Z,2.53
2023-03-27T20:02:07.393Z,1.60
2023-03-27T20:04:34.141Z,1.95
2023-03-27T20:07:02.195Z,2.50
2023-03-27T20:09:28.952Z,2.28
2023-03-27T20:11:55.769Z,2.58
2023-03-27T20:14:22.312Z,2.75
2023-03-27T20:16:50.930Z,2.45
2023-03-27T20:19:18.369Z,2.50
2023-03-27T20:21:46.691Z,2.22
2023-03-27T20:24:17.133Z,2.72
2023-03-27T20:26:52.381Z,2.33
2023-03-27T20:29:23.871Z,3.10
2023-03-27T20:31:50.466Z,2.70
2023-03-27T20:34:19.434Z,2.60
2023-03-27T20:36:46.426Z,2.40
2023-03-27T20:39:27.776Z,2.40
2023-03-27T20:41:58.738Z,2.60
2023-03-27T20:44:35.367Z,3.03
2023-03-27T20:47:11.176Z,3.08
2023-03-27T20:49:45.276Z,2.28
2023-03-27T20:54:39.537Z,2.78
2023-03-27T20:57:09.436Z,2.78
2023-03-27T20:59:36.297Z,2.08
2023-03-27T21:02:05.086Z,2.78
2023-03-27T21:04:31.802Z,2.20
2023-03-27T21:06:58.546Z,2.33
2023-03-27T21:09:26.653Z,2.65
2023-03-27T21:11:55.158Z,2.22
2023-03-27T21:14:22.334Z,2.90
2023-03-27T21:16:48.982Z,2.72
2023-03-27T21:19:15.817Z,2.50
2023-03-27T21:21:42.382Z,1.92
2023-03-27T21:24:08.861Z,2.17
2023-03-27T21:26:36.348Z,2.25
2023-03-27T21:29:03.364Z,2.08
2023-03-27T21:31:30.188Z,1.83
2023-03-27T21:33:56.710Z,2.00
2023-03-27T21:36:23.215Z,2.83
2023-03-27T21:38:51.065Z,2.30
2023-03-27T21:41:18.119Z,1.80
2023-03-27T21:43:45.139Z,2.10
2023-03-27T21:46:12.039Z,2.15
2023-03-27T21:48:40.781Z,2.35
2023-03-27T21:51:08.779Z,2.40
2023-03-27T21:53:36.044Z,1.83
2023-03-27T21:56:03.277Z,2.10
2023-03-27T21:58:29.946Z,2.28
2023-03-27T22:00:57.604Z,2.42
2023-03-27T22:03:25.571Z,1.98
2023-03-27T22:06:07.862Z,2.95
2023-03-27T22:08:38.818Z,2.03
2023-03-27T22:11:06.126Z,1.95
2023-03-27T22:13:34.861Z,1.77
2023-03-27T22:16:02.839Z,2.60
2023-03-27T22:18:31.299Z,2.55
2023-03-27T22:20:57.736Z,2.28
2023-03-27T22:23:24.201Z,2.05
2023-03-27T22:25:54.695Z,2.03
2023-03-27T22:28:21.186Z,2.10
2023-03-27T22:30:47.887Z,2.03
2023-03-27T22:33:14.417Z,2.15
2023-03-27T22:35:48.212Z,2.67
2023-03-27T22:38:16.326Z,1.83
2023-03-27T22:40:43.074Z,2.45
2023-03-27T22:43:09.598Z,2.50
2023-03-27T22:45:36.323Z,2.40
2023-03-27T22:48:02.935Z,3.13
2023-03-27T22:50:29.450Z,2.83
2023-03-27T22:52:56.147Z,3.00
2023-03-27T22:55:22.560Z,3.10
2023-03-27T22:57:49.019Z,2.97
2023-03-27T23:00:16.283Z,2.25
2023-03-27T23:02:42.831Z,2.75
2023-03-27T23:05:09.642Z,2.63
2023-03-27T23:07:36.165Z,2.90
2023-03-27T23:10:02.669Z,2.60
2023-03-27T23:12:29.149Z,2.53
2023-03-27T23:14:55.620Z,2.13
2023-03-27T23:17:22.143Z,3.05
2023-03-27T23:19:48.801Z,2.92
2023-03-27T23:22:15.274Z,2.80
2023-03-27T23:24:41.739Z,2.83
2023-03-27T23:27:08.570Z,2.65
2023-03-27T23:29:35.374Z,2.42
2023-03-27T23:32:01.933Z,2.60
2023-03-27T23:34:28.469Z,2.20
2023-03-27T23:36:54.962Z,2.67
2023-03-27T23:39:21.401Z,2.50
2023-03-27T23:41:47.834Z,2.35
2023-03-27T23:44:14.317Z,2.20
2023-03-27T23:46:41.018Z,2.78
2023-03-27T23:49:07.512Z,2.63
2023-03-27T23:51:33.957Z,2.85
2023-03-27T23:54:00.698Z,2.25
2023-03-27T23:56:27.236Z,2.45
2023-03-27T23:58:53.746Z,1.92
